Time;durP1;ratioP1;P1;durP2;ratioP2;P2;SDS_P1;SDS_P2;PMS_P1;PMS_P2;Temp;Humidity;BMP_temperature;BMP_pressure;BME280_temperature;BME280_humidity;BME280_pressure;Samples;Min_cycle;Max_cycle;Signal;HPM_P1;HPM_P2
2022/10/19 00:01:24;;;;;;;13.87;10.23;;;13.80;99.90;;;;;;6160872;23;20407;-87
2022/10/19 00:03:55;;;;;;;11.23;10.10;;;13.60;99.90;;;;;;6159871;23;20469;-87
2022/10/19 00:06:25;;;;;;;11.50;10.40;;;13.50;99.90;;;;;;6158996;23;20420;-87
2022/10/19 00:08:53;;;;;;;10.40;8.77;;;13.60;99.90;;;;;;6158577;23;20486;-87
2022/10/19 00:11:20;;;;;;;14.93;11.83;;;13.60;99.90;;;;;;6159741;23;20415;-86
2022/10/19 00:13:47;;;;;;;11.53;10.33;;;13.70;99.90;;;;;;6160765;23;20521;-87
2022/10/19 00:16:15;;;;;;;10.53;9.23;;;13.70;99.90;;;;;;6162640;23;20450;-87
2022/10/19 00:18:43;;;;;;;9.70;8.80;;;13.70;99.90;;;;;;6161508;23;20415;-87
2022/10/19 00:21:12;;;;;;;11.93;9.80;;;13.80;99.90;;;;;;6162057;23;20418;-87
2022/10/19 00:23:40;;;;;;;9.47;8.70;;;13.80;99.90;;;;;;6161842;23;20431;-87
2022/10/19 00:26:07;;;;;;;12.63;9.73;;;13.80;99.90;;;;;;6160239;23;20791;-87
2022/10/19 00:28:34;;;;;;;11.10;9.97;;;13.80;99.90;;;;;;6159192;23;20417;-87
2022/10/19 00:31:03;;;;;;;11.37;10.27;;;13.80;99.90;;;;;;6159952;23;20505;-87
2022/10/19 00:33:30;;;;;;;11.07;9.40;;;13.80;99.90;;;;;;6160494;23;20782;-87
2022/10/19 00:35:56;;;;;;;9.43;8.60;;;13.70;99.90;;;;;;6160305;23;20438;-87
2022/10/19 00:38:23;;;;;;;10.43;9.30;;;13.70;99.90;;;;;;6160454;23;20417;-87
2022/10/19 00:40:51;;;;;;;10.77;8.57;;;13.70;99.90;;;;;;6160466;23;20498;-86
2022/10/19 00:43:20;;;;;;;10.87;9.77;;;13.70;99.90;;;;;;6160274;23;20459;-87
2022/10/19 00:45:47;;;;;;;10.63;9.67;;;13.50;99.90;;;;;;6160768;23;20789;-87
2022/10/19 00:48:19;;;;;;;11.27;9.73;;;13.50;99.90;;;;;;6160180;23;20414;-86
2022/10/19 00:50:47;;;;;;;10.17;8.03;;;13.50;99.90;;;;;;6160685;23;20410;-87
2022/10/19 00:53:15;;;;;;;11.53;9.13;;;13.50;99.90;;;;;;6160816;23;20420;-87
2022/10/19 00:55:42;;;;;;;10.80;9.73;;;13.50;99.90;;;;;;6161200;23;20441;-87
2022/10/19 00:58:10;;;;;;;10.33;9.07;;;13.50;99.90;;;;;;6176202;23;20402;-87
2022/10/19 01:00:37;;;;;;;8.80;7.90;;;13.50;99.90;;;;;;6178159;23;20466;-87
2022/10/19 01:03:05;;;;;;;9.80;8.80;;;13.50;99.90;;;;;;6167609;23;20506;-87
2022/10/19 01:05:34;;;;;;;15.50;9.20;;;13.40;99.90;;;;;;6161789;23;20447;-87
2022/10/19 01:08:01;;;;;;;14.03;10.47;;;13.40;99.90;;;;;;6163016;23;20417;-87
2022/10/19 01:10:37;;;;;;;9.50;8.60;;;13.30;99.90;;;;;;6178498;23;20406;-87
2022/10/19 01:13:19;;;;;;;17.23;9.87;;;13.20;99.90;;;;;;6179060;23;20452;-87
2022/10/19 01:15:53;;;;;;;11.63;9.70;;;13.30;99.90;;;;;;6167402;23;20429;-87
2022/10/19 01:18:24;;;;;;;11.10;10.00;;;13.30;99.90;;;;;;6170898;23;20425;-87
2022/10/19 01:21:11;;;;;;;12.70;10.13;;;13.30;99.90;;;;;;6170672;23;20426;-86
2022/10/19 01:24:13;;;;;;;16.00;10.37;;;13.30;99.90;;;;;;6163098;23;20463;-87
2022/10/19 01:27:29;;;;;;;23.57;12.57;;;13.40;99.90;;;;;;6162964;23;20430;-87
2022/10/19 01:30:01;;;;;;;27.47;15.03;;;13.40;99.90;;;;;;6041139;23;20410;-87
2022/10/19 01:33:04;;;;;;;32.03;17.20;;;13.50;99.90;;;;;;6039892;23;20782;-87
2022/10/19 01:35:56;;;;;;;26.50;16.30;;;13.50;99.90;;;;;;6037546;23;20426;-87
2022/10/19 01:38:29;;;;;;;24.67;16.70;;;13.60;99.90;;;;;;6105273;23;20417;-87
2022/10/19 01:41:03;;;;;;;23.23;16.70;;;13.70;99.90;;;;;;6156651;23;20406;-87
2022/10/19 01:43:37;;;;;;;22.87;15.00;;;13.80;99.90;;;;;;6156197;23;20808;-87
2022/10/19 01:46:12;;;;;;;27.90;15.87;;;13.90;99.90;;;;;;6156088;23;21017;-87
2022/10/19 01:48:44;;;;;;;31.60;17.50;;;13.90;99.90;;;;;;6156073;23;20485;-88
2022/10/19 01:51:16;;;;;;;21.87;15.53;;;14.00;99.90;;;;;;6156719;23;20486;-87
2022/10/19 01:53:48;;;;;;;22.77;16.90;;;14.10;99.90;;;;;;6155739;23;20498;-87
2022/10/19 01:56:19;;;;;;;26.70;17.20;;;14.10;99.90;;;;;;6156396;23;20402;-87
2022/10/19 01:58:47;;;;;;;23.37;16.77;;;14.20;99.90;;;;;;6155349;23;20413;-87
2022/10/19 02:01:19;;;;;;;27.10;19.23;;;14.30;99.90;;;;;;6156036;23;20413;-87
2022/10/19 02:03:47;;;;;;;28.90;19.30;;;14.30;99.90;;;;;;6155671;23;20431;-87
2022/10/19 02:06:14;;;;;;;37.93;19.33;;;14.40;99.90;;;;;;6155559;23;20534;-86
2022/10/19 02:08:46;;;;;;;56.07;19.97;;;14.40;99.90;;;;;;6155779;23;20412;-87
2022/10/19 02:11:13;;;;;;;22.60;15.17;;;14.50;99.90;;;;;;6156169;23;20399;-87
2022/10/19 02:13:42;;;;;;;29.80;17.00;;;14.50;99.90;;;;;;6155961;23;20471;-87
2022/10/19 02:16:14;;;;;;;26.13;15.70;;;14.50;99.90;;;;;;6155978;23;20431;-87
2022/10/19 02:18:46;;;;;;;26.53;14.90;;;14.50;99.90;;;;;;6155624;23;20484;-87
2022/10/19 02:21:13;;;;;;;21.20;14.30;;;14.10;99.90;;;;;;6168607;23;20386;-87
2022/10/19 02:23:40;;;;;;;52.63;17.60;;;14.20;99.90;;;;;;6158459;23;20511;-87
2022/10/19 02:26:08;;;;;;;52.70;18.97;;;14.30;99.90;;;;;;6155905;23;20485;-87
2022/10/19 02:28:35;;;;;;;52.77;21.93;;;14.30;99.90;;;;;;6154992;23;20506;-86
2022/10/19 02:31:03;;;;;;;73.27;20.67;;;14.30;99.90;;;;;;6155500;23;20418;-87
2022/10/19 02:33:30;;;;;;;84.97;26.87;;;14.30;99.90;;;;;;6155380;23;20441;-87
2022/10/19 02:35:59;;;;;;;92.93;24.00;;;14.20;99.90;;;;;;6155169;23;20407;-87
2022/10/19 02:38:27;;;;;;;89.57;26.97;;;14.10;99.90;;;;;;6155064;23;20494;-87
2022/10/19 02:44:21;;;;;;;44.37;21.57;;;13.90;99.90;;;;;;6154899;23;20870;-86
2022/10/19 02:46:51;;;;;;;46.67;22.27;;;14.00;99.90;;;;;;6155141;23;20416;-87
2022/10/19 02:49:19;;;;;;;80.60;28.70;;;14.10;99.90;;;;;;6155163;23;20788;-87
2022/10/19 02:51:59;;;;;;;40.73;23.43;;;14.20;99.90;;;;;;6154499;23;20494;-87
2022/10/19 02:54:27;;;;;;;87.23;29.77;;;14.30;99.90;;;;;;6154973;23;20475;-87
2022/10/19 02:56:54;;;;;;;63.03;25.67;;;14.30;99.90;;;;;;6154507;23;20414;-87
2022/10/19 02:59:21;;;;;;;45.70;22.17;;;14.40;99.90;;;;;;6153782;23;20421;-87
2022/10/19 03:01:48;;;;;;;58.23;24.60;;;14.50;99.90;;;;;;6154178;23;20416;-87
2022/10/19 03:04:14;;;;;;;33.07;19.73;;;14.50;99.90;;;;;;6154851;23;20513;-87
2022/10/19 03:06:41;;;;;;;55.63;26.60;;;14.60;99.90;;;;;;6154217;23;20446;-87
2022/10/19 03:09:10;;;;;;;30.53;20.97;;;14.60;99.90;;;;;;6154344;23;20403;-86
2022/10/19 03:11:36;;;;;;;71.67;26.23;;;14.60;99.90;;;;;;6154898;23;20494;-87
2022/10/19 03:14:03;;;;;;;40.90;23.93;;;14.60;99.90;;;;;;6155526;23;20845;-87
2022/10/19 03:16:30;;;;;;;54.90;25.20;;;14.70;99.90;;;;;;6156571;23;20502;-87
2022/10/19 03:18:57;;;;;;;103.43;30.13;;;14.70;99.90;;;;;;6156773;23;20966;-87
2022/10/19 03:21:24;;;;;;;90.70;28.30;;;14.80;99.90;;;;;;6156876;23;20748;-87
2022/10/19 03:23:50;;;;;;;98.60;30.80;;;14.80;99.90;;;;;;6156995;23;20522;-86
2022/10/19 03:26:19;;;;;;;79.43;28.57;;;14.80;99.90;;;;;;6156494;23;20982;-87
2022/10/19 03:28:45;;;;;;;49.33;25.97;;;14.90;99.90;;;;;;6159591;23;20497;-86
2022/10/19 03:31:12;;;;;;;50.67;26.80;;;14.90;99.90;;;;;;6158647;23;20419;-87
2022/10/19 03:33:39;;;;;;;77.10;26.10;;;14.90;99.90;;;;;;6157493;23;20443;-87
2022/10/19 03:36:16;;;;;;;55.80;24.60;;;14.90;99.90;;;;;;6156640;23;20435;-87
2022/10/19 03:38:44;;;;;;;104.53;33.00;;;14.90;99.90;;;;;;6156470;23;20458;-87
2022/10/19 03:41:11;;;;;;;81.07;27.63;;;14.90;99.90;;;;;;6156990;23;20416;-87
2022/10/19 03:43:40;;;;;;;53.43;23.77;;;14.90;99.90;;;;;;6156486;23;20419;-87
2022/10/19 03:46:07;;;;;;;71.70;26.67;;;15.00;99.90;;;;;;6156949;23;20963;-87
2022/10/19 03:48:33;;;;;;;43.07;26.90;;;15.00;99.90;;;;;;6156308;23;20744;-86
2022/10/19 03:51:01;;;;;;;44.83;26.80;;;15.00;99.90;;;;;;6156433;23;20503;-87
2022/10/19 03:53:30;;;;;;;68.60;28.30;;;15.10;99.90;;;;;;6156159;23;20460;-87
2022/10/19 03:56:01;;;;;;;76.07;30.80;;;15.10;99.90;;;;;;6156570;23;20413;-87
2022/10/19 03:58:28;;;;;;;82.30;28.97;;;15.20;99.90;;;;;;6155920;23;20871;-87
2022/10/19 04:00:56;;;;;;;62.53;26.57;;;15.20;99.90;;;;;;6156489;23;20489;-87
2022/10/19 04:03:23;;;;;;;77.80;28.47;;;15.30;99.90;;;;;;6156408;23;20453;-87
2022/10/19 04:05:50;;;;;;;79.63;29.07;;;15.30;99.90;;;;;;6156362;23;20547;-88
2022/10/19 04:08:17;;;;;;;109.27;32.50;;;15.30;99.90;;;;;;6155899;23;20440;-87
2022/10/19 04:10:44;;;;;;;51.23;22.87;;;15.30;99.90;;;;;;6156458;23;20414;-86
2022/10/19 04:13:11;;;;;;;83.27;29.47;;;15.20;99.90;;;;;;6155761;23;20535;-87
2022/10/19 04:15:37;;;;;;;95.70;27.40;;;15.30;99.90;;;;;;6156429;23;20444;-87
2022/10/19 04:18:06;;;;;;;63.60;27.57;;;15.30;99.90;;;;;;6155798;23;20903;-86
2022/10/19 04:20:32;;;;;;;44.57;23.93;;;15.30;99.90;;;;;;6156274;23;20498;-87
2022/10/19 04:22:59;;;;;;;39.50;23.27;;;15.40;99.90;;;;;;6155821;23;21029;-87
2022/10/19 04:25:26;;;;;;;32.83;19.97;;;15.40;99.90;;;;;;6156269;23;20537;-87
2022/10/19 04:27:53;;;;;;;35.07;22.37;;;15.50;99.90;;;;;;6155917;23;20496;-87
2022/10/19 04:30:20;;;;;;;34.30;22.63;;;15.50;99.90;;;;;;6155961;23;20418;-87
2022/10/19 04:32:46;;;;;;;33.83;22.00;;;15.50;99.90;;;;;;6155814;23;21002;-87
2022/10/19 04:35:15;;;;;;;34.63;21.00;;;15.60;99.90;;;;;;6155729;23;20487;-87
2022/10/19 04:37:41;;;;;;;32.10;22.43;;;15.60;99.90;;;;;;6155722;23;20419;-87
2022/10/19 04:40:10;;;;;;;30.53;21.00;;;15.60;99.90;;;;;;6155754;23;20422;-86
2022/10/19 04:42:37;;;;;;;30.47;21.50;;;15.60;99.90;;;;;;6156188;23;20546;-87
2022/10/19 04:45:04;;;;;;;31.03;22.60;;;15.60;99.90;;;;;;6156041;23;20962;-86
2022/10/19 04:47:31;;;;;;;32.57;21.80;;;15.60;99.90;;;;;;6156252;23;20920;-86
2022/10/19 04:49:58;;;;;;;29.50;22.10;;;15.60;99.90;;;;;;6156292;23;20792;-86
2022/10/19 04:52:26;;;;;;;30.27;22.10;;;15.70;99.90;;;;;;6156170;23;20494;-86
2022/10/19 04:54:53;;;;;;;28.10;22.80;;;15.70;99.90;;;;;;6156078;23;20417;-86
2022/10/19 04:57:19;;;;;;;30.33;23.03;;;15.70;99.90;;;;;;6155991;23;20781;-86
2022/10/19 04:59:47;;;;;;;29.43;21.80;;;15.70;99.90;;;;;;6155875;23;20449;-86
2022/10/19 05:02:14;;;;;;;27.20;21.57;;;15.70;99.90;;;;;;6155799;23;20463;-86
2022/10/19 05:04:41;;;;;;;30.17;23.87;;;15.70;99.90;;;;;;6155451;23;20452;-86
2022/10/19 05:07:08;;;;;;;30.70;24.43;;;15.70;99.90;;;;;;6155520;23;20455;-86
2022/10/19 05:09:39;;;;;;;35.63;24.57;;;15.70;99.90;;;;;;6155958;23;20502;-86
2022/10/19 05:12:06;;;;;;;42.40;25.83;;;15.70;99.90;;;;;;6156513;23;20506;-87
2022/10/19 05:14:33;;;;;;;30.00;24.00;;;15.70;99.90;;;;;;6158622;23;20767;-87
2022/10/19 05:17:00;;;;;;;36.10;22.60;;;15.70;99.90;;;;;;6155927;23;20505;-89
2022/10/19 05:19:27;;;;;;;31.20;23.40;;;15.80;99.90;;;;;;6155812;23;20503;-89
2022/10/19 05:21:54;;;;;;;43.53;24.57;;;15.80;99.90;;;;;;6155831;23;20463;-91
2022/10/19 05:24:21;;;;;;;40.70;24.73;;;15.80;99.90;;;;;;6155907;23;20440;-90
2022/10/19 05:26:49;;;;;;;38.43;23.90;;;15.80;99.90;;;;;;6155789;23;20447;-90
2022/10/19 05:29:16;;;;;;;33.10;22.93;;;15.80;99.90;;;;;;6155527;23;20462;-90
2022/10/19 05:31:43;;;;;;;36.50;24.60;;;15.80;99.90;;;;;;6155850;23;20962;-90
2022/10/19 05:34:10;;;;;;;39.53;23.87;;;15.80;99.90;;;;;;6156308;23;20413;-90
2022/10/19 05:36:38;;;;;;;35.60;23.43;;;15.70;99.90;;;;;;6156227;23;20492;-90
2022/10/19 05:39:08;;;;;;;34.70;22.03;;;15.60;99.90;;;;;;6156554;23;20903;-90
2022/10/19 05:41:35;;;;;;;30.60;23.10;;;15.60;99.90;;;;;;6156753;23;20489;-91
2022/10/19 05:44:05;;;;;;;34.57;23.67;;;15.60;99.90;;;;;;6156898;23;20479;-91
2022/10/19 05:46:33;;;;;;;28.10;21.67;;;15.60;99.90;;;;;;6156253;23;20522;-89
2022/10/19 05:49:00;;;;;;;37.83;23.67;;;15.60;99.90;;;;;;6155780;23;20741;-90
2022/10/19 05:51:28;;;;;;;34.53;23.53;;;15.60;99.90;;;;;;6156702;23;20492;-90
2022/10/19 05:54:38;;;;;;;;;;;;;;;;;;;;;
2022/10/19 05:57:13;;;;;;;25.20;18.13;;;15.60;99.90;;;;;;6156166;23;20385;-91
2022/10/19 05:59:41;;;;;;;23.93;17.83;;;15.50;99.90;;;;;;6156126;23;20799;-88
2022/10/19 06:02:14;;;;;;;23.40;17.73;;;15.50;99.90;;;;;;6165081;23;20415;-90
2022/10/19 06:04:42;;;;;;;23.27;17.83;;;15.50;99.90;;;;;;6166875;23;20391;-90
2022/10/19 06:07:09;;;;;;;22.80;17.90;;;15.50;99.90;;;;;;6176060;23;20466;-91
2022/10/19 06:09:36;;;;;;;27.80;19.10;;;15.50;99.90;;;;;;6170665;23;20426;-89
2022/10/19 06:12:06;;;;;;;24.10;18.80;;;15.40;99.90;;;;;;6167337;23;20429;-90
2022/10/19 06:14:37;;;;;;;24.77;18.90;;;15.40;99.90;;;;;;6180779;23;20391;-89
2022/10/19 06:17:05;;;;;;;32.13;18.30;;;15.40;99.90;;;;;;6178712;23;20399;-86
2022/10/19 06:19:35;;;;;;;27.47;18.90;;;15.40;99.90;;;;;;6161637;23;20436;-87
2022/10/19 06:22:02;;;;;;;23.33;17.60;;;15.30;99.90;;;;;;6157270;23;20411;-88
2022/10/19 06:24:43;;;;;;;29.47;17.60;;;15.40;99.90;;;;;;6157446;23;20418;-87
2022/10/19 06:27:10;;;;;;;22.27;18.17;;;15.30;99.90;;;;;;6156145;23;20448;-87
2022/10/19 06:29:46;;;;;;;26.73;18.27;;;15.40;99.90;;;;;;6156636;23;20410;-87
2022/10/19 06:32:22;;;;;;;26.27;17.70;;;15.40;99.90;;;;;;6155532;23;20438;-87
2022/10/19 06:34:50;;;;;;;35.90;18.53;;;15.30;99.90;;;;;;6156397;23;20482;-87
2022/10/19 06:37:17;;;;;;;25.30;19.87;;;15.30;99.90;;;;;;6156625;23;20497;-87
2022/10/19 06:39:44;;;;;;;23.93;17.80;;;15.30;99.90;;;;;;6155558;23;20410;-87
2022/10/19 06:42:10;;;;;;;25.47;16.50;;;15.30;99.90;;;;;;6155646;23;20818;-87
2022/10/19 06:44:38;;;;;;;29.90;19.57;;;15.20;99.90;;;;;;6155351;23;20419;-87
2022/10/19 06:47:57;;;;;;;22.50;18.23;;;15.30;99.90;;;;;;6128253;23;20447;-88
2022/10/19 06:50:40;;;;;;;19.10;16.80;;;15.30;99.90;;;;;;6153838;23;20426;-87
2022/10/19 06:53:28;;;;;;;22.03;15.33;;;15.30;99.90;;;;;;6154021;23;20459;-87
2022/10/19 06:56:37;;;;;;;19.03;15.50;;;15.40;99.90;;;;;;6154812;23;20428;-88
2022/10/19 06:59:23;;;;;;;22.17;17.80;;;15.40;99.90;;;;;;6155145;23;20399;-88
2022/10/19 07:01:58;;;;;;;19.13;15.93;;;15.40;99.90;;;;;;6154515;23;20477;-87
2022/10/19 07:04:38;;;;;;;23.67;16.37;;;15.40;99.90;;;;;;6154782;23;20422;-87
2022/10/19 07:07:06;;;;;;;20.43;15.17;;;15.40;99.90;;;;;;6154788;23;20577;-87
2022/10/19 07:09:32;;;;;;;19.57;14.83;;;15.30;99.90;;;;;;6154801;23;20450;-87
2022/10/19 07:12:17;;;;;;;17.10;15.10;;;15.30;99.90;;;;;;6155032;23;20417;-88
2022/10/19 07:15:06;;;;;;;19.37;16.00;;;15.30;99.90;;;;;;6153800;23;20928;-87
2022/10/19 07:17:33;;;;;;;20.40;15.77;;;15.30;99.90;;;;;;6155439;23;20866;-88
2022/10/19 07:20:45;;;;;;;18.70;15.80;;;15.40;99.90;;;;;;6154971;23;20435;-87
2022/10/19 07:23:13;;;;;;;17.80;14.90;;;15.50;99.90;;;;;;6149014;23;20443;-88
2022/10/19 07:25:42;;;;;;;15.67;13.47;;;15.60;99.90;;;;;;6155831;23;20451;-88
2022/10/19 07:28:21;;;;;;;18.70;14.33;;;15.60;99.90;;;;;;6154987;23;20493;-88
2022/10/19 07:31:01;;;;;;;17.43;14.47;;;15.70;99.90;;;;;;6155425;23;20399;-88
2022/10/19 07:33:28;;;;;;;18.90;15.40;;;15.80;99.90;;;;;;6154935;23;20439;-88
2022/10/19 07:35:59;;;;;;;16.77;13.57;;;15.90;99.90;;;;;;6155106;23;20418;-88
2022/10/19 07:38:28;;;;;;;15.67;13.00;;;15.90;99.90;;;;;;6155022;23;20403;-88
2022/10/19 07:41:01;;;;;;;16.83;13.40;;;16.00;99.90;;;;;;6161961;23;20453;-88
2022/10/19 07:43:27;;;;;;;16.13;14.53;;;16.00;99.90;;;;;;6164612;23;20436;-88
2022/10/19 07:45:58;;;;;;;17.83;15.77;;;16.00;99.90;;;;;;6155087;23;20505;-88
2022/10/19 07:48:34;;;;;;;16.10;12.73;;;16.10;99.90;;;;;;6154996;23;20401;-88
2022/10/19 07:51:03;;;;;;;17.47;15.10;;;16.10;99.90;;;;;;6154804;23;20466;-87
2022/10/19 07:53:31;;;;;;;16.77;14.17;;;16.20;99.90;;;;;;6154856;23;20676;-88
2022/10/19 07:56:03;;;;;;;15.23;13.53;;;16.30;99.90;;;;;;6154659;23;20424;-87
2022/10/19 07:58:30;;;;;;;15.00;13.37;;;16.30;99.90;;;;;;6154653;23;20463;-87
2022/10/19 08:01:00;;;;;;;14.00;12.70;;;16.40;99.90;;;;;;6156719;23;20502;-87
2022/10/19 08:03:27;;;;;;;12.07;10.87;;;16.50;99.90;;;;;;6155974;23;20441;-88
2022/10/19 08:05:53;;;;;;;15.07;13.07;;;16.40;99.90;;;;;;6156591;23;20749;-88
2022/10/19 08:08:20;;;;;;;15.00;13.20;;;16.40;99.90;;;;;;6156762;23;20457;-86
2022/10/19 08:10:49;;;;;;;14.70;12.17;;;16.40;99.90;;;;;;6156547;23;20425;-87
2022/10/19 08:13:15;;;;;;;14.00;11.53;;;16.40;99.90;;;;;;6156319;23;20510;-87
2022/10/19 08:15:42;;;;;;;13.43;12.00;;;16.40;99.90;;;;;;6156752;23;20396;-87
2022/10/19 08:18:10;;;;;;;14.00;12.50;;;16.40;99.90;;;;;;6156565;23;20794;-87
2022/10/19 08:20:37;;;;;;;15.70;11.90;;;16.40;99.90;;;;;;6156151;23;20424;-86
2022/10/19 08:23:03;;;;;;;15.60;13.87;;;16.40;99.90;;;;;;6156510;23;20424;-87
2022/10/19 08:25:30;;;;;;;14.83;12.30;;;16.40;99.90;;;;;;6156717;23;20412;-87
2022/10/19 08:27:58;;;;;;;13.80;12.37;;;16.50;99.90;;;;;;6155952;23;20458;-87
2022/10/19 08:30:25;;;;;;;14.30;11.37;;;16.50;99.90;;;;;;6156582;23;20423;-87
2022/10/19 08:32:52;;;;;;;12.93;11.47;;;16.50;99.90;;;;;;6156647;23;20437;-87
2022/10/19 08:35:22;;;;;;;15.27;12.70;;;16.50;99.90;;;;;;6165942;23;20442;-87
2022/10/19 08:37:48;;;;;;;16.13;13.27;;;16.50;99.90;;;;;;6169007;23;20482;-89
2022/10/19 08:40:20;;;;;;;15.73;13.27;;;16.60;99.90;;;;;;6160938;23;20507;-86
2022/10/19 08:42:54;;;;;;;14.50;12.97;;;16.70;99.90;;;;;;6155842;23;20515;-86
2022/10/19 08:45:33;;;;;;;15.50;13.90;;;16.80;99.90;;;;;;6156764;23;20915;-87
2022/10/19 08:48:10;;;;;;;13.80;11.83;;;16.90;99.90;;;;;;6156138;23;20432;-87
2022/10/19 08:50:39;;;;;;;14.97;13.23;;;16.90;99.90;;;;;;6156255;23;20467;-87
2022/10/19 08:53:11;;;;;;;14.10;12.60;;;16.90;99.90;;;;;;6158143;23;20432;-87
2022/10/19 08:56:00;;;;;;;13.40;12.00;;;17.00;99.90;;;;;;6157589;23;20396;-87
2022/10/19 08:58:48;;;;;;;12.50;11.30;;;17.10;99.90;;;;;;6156242;23;20423;-87
2022/10/19 09:01:31;;;;;;;15.37;12.50;;;17.20;99.90;;;;;;6156588;23;20404;-87
2022/10/19 09:04:09;;;;;;;10.43;9.53;;;17.30;99.90;;;;;;6155885;23;20512;-86
2022/10/19 09:06:47;;;;;;;12.10;10.90;;;17.40;99.90;;;;;;6156154;23;20495;-87
2022/10/19 09:09:20;;;;;;;11.43;10.23;;;17.50;99.90;;;;;;6156236;23;20430;-87
2022/10/19 09:11:50;;;;;;;9.37;8.40;;;17.50;99.90;;;;;;6155872;23;20792;-87
2022/10/19 09:14:23;;;;;;;9.23;8.30;;;17.50;99.90;;;;;;6155875;23;20428;-86
2022/10/19 09:16:51;;;;;;;9.17;8.37;;;17.50;99.90;;;;;;6155827;23;20401;-87
2022/10/19 09:19:24;;;;;;;8.73;7.90;;;17.50;99.90;;;;;;6155628;23;20494;-87
2022/10/19 09:21:55;;;;;;;6.97;6.27;;;17.50;99.90;;;;;;6155999;23;20440;-86
2022/10/19 09:24:31;;;;;;;8.63;7.73;;;17.60;99.90;;;;;;6156094;23;20398;-87
2022/10/19 09:27:01;;;;;;;8.77;7.87;;;17.60;99.90;;;;;;6156057;23;20455;-87
2022/10/19 09:29:36;;;;;;;8.50;7.70;;;17.70;99.90;;;;;;6155389;23;20492;-87
2022/10/19 09:32:12;;;;;;;8.67;7.83;;;17.70;99.90;;;;;;6155800;23;20480;-87
2022/10/19 09:34:43;;;;;;;8.13;7.37;;;17.60;99.90;;;;;;6155989;23;20442;-88
2022/10/19 09:37:12;;;;;;;7.67;6.97;;;17.60;99.90;;;;;;6155604;23;20424;-87
2022/10/19 09:39:39;;;;;;;9.40;7.87;;;17.50;99.90;;;;;;6155620;23;20404;-86
2022/10/19 09:42:10;;;;;;;8.33;7.50;;;17.60;99.90;;;;;;6156029;23;20437;-86
2022/10/19 09:44:37;;;;;;;7.13;6.43;;;17.50;99.90;;;;;;6156091;23;20419;-87
2022/10/19 09:47:17;;;;;;;8.17;7.33;;;17.50;99.90;;;;;;6155999;23;20451;-87
2022/10/19 09:49:46;;;;;;;8.20;7.50;;;17.50;99.90;;;;;;6155564;23;20707;-87
2022/10/19 09:52:27;;;;;;;6.67;6.07;;;17.50;99.90;;;;;;6155912;23;20427;-87
2022/10/19 09:55:01;;;;;;;7.30;6.60;;;17.60;99.90;;;;;;6156604;23;20397;-87
2022/10/19 09:57:29;;;;;;;7.63;6.93;;;17.70;99.90;;;;;;6155932;23;20391;-87
2022/10/19 09:59:56;;;;;;;9.33;8.40;;;17.60;99.90;;;;;;6155934;23;20794;-87
2022/10/19 10:02:29;;;;;;;9.97;8.57;;;17.60;99.90;;;;;;6155981;23;20940;-87
2022/10/19 10:05:05;;;;;;;10.87;9.27;;;17.50;99.90;;;;;;6156107;23;20384;-87
2022/10/19 10:07:36;;;;;;;9.80;8.90;;;17.30;99.90;;;;;;6156001;23;20430;-86
2022/10/19 10:10:10;;;;;;;9.80;8.90;;;17.30;99.90;;;;;;6156118;23;20396;-87
2022/10/19 10:12:39;;;;;;;8.90;8.03;;;17.20;99.90;;;;;;6155714;23;20440;-87
2022/10/19 10:15:07;;;;;;;6.80;6.10;;;17.30;99.90;;;;;;6155746;23;20983;-87
2022/10/19 10:17:37;;;;;;;6.13;5.53;;;17.20;99.90;;;;;;6156199;23;20810;-87
2022/10/19 10:20:18;;;;;;;6.93;6.40;;;17.30;99.90;;;;;;6155450;23;20452;-86
2022/10/19 10:22:55;;;;;;;5.17;4.77;;;17.30;99.90;;;;;;6155597;23;20492;-86
2022/10/19 10:25:26;;;;;;;5.10;4.70;;;17.40;99.90;;;;;;6156406;23;20428;-87
2022/10/19 10:27:59;;;;;;;4.07;3.77;;;17.40;99.90;;;;;;6155672;23;20512;-87
2022/10/19 10:30:30;;;;;;;3.53;3.23;;;17.60;99.90;;;;;;6156035;23;20401;-87
2022/10/19 10:33:01;;;;;;;3.57;3.33;;;17.50;99.90;;;;;;6156082;23;20502;-87
2022/10/19 10:35:33;;;;;;;3.63;3.43;;;17.60;99.90;;;;;;6155932;23;20461;-87
2022/10/19 10:38:09;;;;;;;3.00;2.70;;;17.80;99.90;;;;;;6155761;23;20932;-87
2022/10/19 10:40:39;;;;;;;5.10;3.87;;;18.00;99.90;;;;;;6155759;23;20434;-87
2022/10/19 10:43:08;;;;;;;4.53;3.57;;;18.10;99.90;;;;;;6155347;23;20452;-87
2022/10/19 10:45:39;;;;;;;3.70;3.40;;;18.10;99.90;;;;;;6155596;23;20496;-86
2022/10/19 10:48:27;;;;;;;3.37;3.10;;;18.20;99.90;;;;;;6155392;23;20448;-87
2022/10/19 10:50:54;;;;;;;3.60;3.30;;;18.30;99.90;;;;;;6155124;23;20420;-88
2022/10/19 10:53:37;;;;;;;5.60;3.90;;;18.40;99.90;;;;;;6155277;23;20421;-87
2022/10/19 10:56:05;;;;;;;3.93;3.50;;;18.40;99.90;;;;;;6155692;23;20462;-87
2022/10/19 10:58:42;;;;;;;4.07;3.77;;;18.40;99.90;;;;;;6155558;23;20409;-87
2022/10/19 11:01:18;;;;;;;3.50;3.20;;;18.50;99.90;;;;;;6156155;23;20409;-87
2022/10/19 11:03:52;;;;;;;4.27;3.93;;;18.50;99.90;;;;;;6155584;23;20760;-87
2022/10/19 11:06:21;;;;;;;4.23;3.93;;;18.50;99.90;;;;;;6155888;23;20482;-86
2022/10/19 11:08:55;;;;;;;5.03;4.63;;;18.50;99.90;;;;;;6160008;23;20441;-87
2022/10/19 11:11:27;;;;;;;4.30;4.00;;;18.50;99.90;;;;;;6178403;23;20398;-86
2022/10/19 11:13:59;;;;;;;4.53;3.80;;;18.50;99.90;;;;;;6142878;23;21080;-84
2022/10/19 11:16:31;;;;;;;4.50;3.77;;;18.40;99.90;;;;;;6132533;23;20398;-84
2022/10/19 11:19:06;;;;;;;3.90;3.57;;;18.40;99.90;;;;;;6132629;23;20397;-84
2022/10/19 11:21:42;;;;;;;5.63;4.93;;;18.40;99.90;;;;;;6133108;23;20430;-84
2022/10/19 11:24:18;;;;;;;4.97;4.57;;;18.40;99.90;;;;;;6157264;23;20429;-83
2022/10/19 11:26:59;;;;;;;5.50;4.10;;;18.40;99.90;;;;;;6161992;23;20401;-83
2022/10/19 11:29:42;;;;;;;5.30;4.80;;;18.60;99.90;;;;;;6161396;23;20413;-84
2022/10/19 11:32:20;;;;;;;5.80;5.20;;;18.60;99.90;;;;;;6161460;23;20781;-83
2022/10/19 11:35:02;;;;;;;6.30;5.70;;;18.70;99.90;;;;;;6163099;23;20396;-83
2022/10/19 11:37:35;;;;;;;7.77;5.67;;;18.80;99.90;;;;;;6163134;23;20397;-84
2022/10/19 11:40:12;;;;;;;5.90;5.40;;;18.90;99.90;;;;;;6163775;23;20421;-84
2022/10/19 11:42:49;;;;;;;5.63;5.13;;;19.10;99.90;;;;;;6162302;23;20427;-84
2022/10/19 11:45:27;;;;;;;6.43;5.80;;;19.30;99.90;;;;;;6163258;23;20485;-84
2022/10/19 11:48:11;;;;;;;6.40;5.80;;;19.30;99.90;;;;;;6164344;23;20440;-84
2022/10/19 11:50:48;;;;;;;5.73;5.23;;;19.30;99.90;;;;;;6169338;23;20397;-84
2022/10/19 11:53:22;;;;;;;6.67;6.07;;;19.30;99.90;;;;;;6163437;23;21028;-84
2022/10/19 11:55:59;;;;;;;6.53;5.90;;;19.30;99.90;;;;;;6163296;23;20408;-84
2022/10/19 11:58:37;;;;;;;6.27;5.73;;;19.10;99.90;;;;;;6162771;23;20395;-84
2022/10/19 12:01:19;;;;;;;5.33;4.87;;;19.00;99.90;;;;;;6164808;23;20395;-84
2022/10/19 12:04:13;;;;;;;5.93;5.20;;;19.10;99.90;;;;;;6163501;23;20431;-84
2022/10/19 12:06:50;;;;;;;6.20;5.57;;;19.10;99.90;;;;;;6164290;23;20402;-83
2022/10/19 12:09:33;;;;;;;7.40;5.40;;;19.20;99.90;;;;;;6162961;23;20430;-84
2022/10/19 12:12:18;;;;;;;6.30;5.70;;;19.20;99.90;;;;;;6162962;23;20395;-84
2022/10/19 12:14:49;;;;;;;6.20;5.60;;;19.30;99.90;;;;;;6162384;23;20846;-83
2022/10/19 12:17:23;;;;;;;6.30;5.87;;;19.40;99.90;;;;;;6162535;23;20393;-84
2022/10/19 12:19:55;;;;;;;6.70;6.10;;;19.50;99.90;;;;;;6161779;23;20391;-84
2022/10/19 12:22:28;;;;;;;6.33;5.20;;;19.60;99.90;;;;;;6161686;23;20371;-84
2022/10/19 12:24:57;;;;;;;5.33;4.93;;;19.60;99.90;;;;;;6162205;23;20398;-84
2022/10/19 12:27:30;;;;;;;5.30;4.90;;;19.70;99.90;;;;;;6162777;23;20414;-84
2022/10/19 12:30:01;;;;;;;5.67;5.27;;;19.80;99.90;;;;;;6162773;23;20398;-84
2022/10/19 12:32:33;;;;;;;6.33;5.83;;;19.90;99.90;;;;;;6164421;23;20903;-84
2022/10/19 12:35:08;;;;;;;7.17;6.57;;;19.80;99.90;;;;;;6164162;23;20484;-84
2022/10/19 12:37:42;;;;;;;7.10;6.50;;;19.70;99.90;;;;;;6162983;23;20408;-83
2022/10/19 12:40:19;;;;;;;7.20;6.60;;;19.80;99.90;;;;;;6163621;23;20400;-84
2022/10/19 12:42:54;;;;;;;6.00;5.50;;;19.80;99.90;;;;;;6162824;23;20434;-84
2022/10/19 12:45:29;;;;;;;6.40;5.80;;;19.90;99.90;;;;;;6172099;23;20473;-84
2022/10/19 12:48:18;;;;;;;6.80;6.10;;;20.00;99.90;;;;;;6163910;23;20464;-83
2022/10/19 12:51:06;;;;;;;5.83;5.33;;;19.90;99.90;;;;;;6163343;23;20414;-82
2022/10/19 12:53:37;;;;;;;6.93;6.23;;;19.90;99.90;;;;;;6162732;23;20473;-83
2022/10/19 12:56:06;;;;;;;8.00;7.30;;;19.80;99.90;;;;;;6163275;23;20397;-83
2022/10/19 12:58:38;;;;;;;8.00;7.37;;;19.70;99.90;;;;;;6161984;23;20403;-83
2022/10/19 13:01:07;;;;;;;7.40;6.77;;;19.70;99.90;;;;;;6162296;23;20395;-83
2022/10/19 13:03:36;;;;;;;8.27;5.93;;;19.60;99.90;;;;;;6162306;23;20430;-83